createdAt,value
2024-03-08T00:02:03.852Z,20.50
2024-03-08T00:04:31.316Z,19.43
2024-03-08T00:06:58.749Z,19.57
2024-03-08T00:09:27.757Z,19.27
2024-03-08T00:11:55.612Z,19.40
2024-03-08T00:14:23.101Z,18.57
2024-03-08T00:16:50.583Z,20.03
2024-03-08T00:19:18.405Z,19.90
2024-03-08T00:21:45.943Z,18.03
2024-03-08T00:24:13.415Z,18.90
2024-03-08T00:26:40.817Z,17.50
2024-03-08T00:29:08.755Z,18.80
2024-03-08T00:31:36.529Z,19.70
2024-03-08T00:34:04.001Z,17.87
2024-03-08T00:36:31.508Z,19.80
2024-03-08T00:39:00.758Z,17.90
2024-03-08T00:41:28.275Z,18.43
2024-03-08T00:43:55.761Z,18.80
2024-03-08T00:46:23.137Z,17.87
2024-03-08T00:48:50.692Z,18.60
2024-03-08T00:51:18.302Z,18.03
2024-03-08T00:53:45.762Z,17.07
2024-03-08T00:56:13.212Z,18.77
2024-03-08T00:58:41.106Z,19.50
2024-03-08T01:01:08.522Z,19.40
2024-03-08T01:03:35.905Z,19.23
2024-03-08T01:06:03.464Z,17.80
2024-03-08T01:08:30.999Z,18.00
2024-03-08T01:10:58.744Z,18.83
2024-03-08T01:13:26.144Z,18.80
2024-03-08T01:15:53.562Z,19.20
2024-03-08T01:18:21.144Z,19.27
2024-03-08T01:20:48.704Z,18.70
2024-03-08T01:23:16.158Z,19.00
2024-03-08T01:25:44.858Z,19.87
2024-03-08T01:28:13.771Z,19.53
2024-03-08T01:30:42.856Z,19.80
2024-03-08T01:33:10.352Z,18.90
2024-03-08T01:35:37.842Z,18.90
2024-03-08T01:38:05.944Z,18.73
2024-03-08T01:40:34.976Z,19.40
2024-03-08T01:43:04.451Z,20.50
2024-03-08T01:45:33.498Z,19.27
2024-03-08T01:48:01.222Z,20.73
2024-03-08T01:50:28.830Z,18.30
2024-03-08T01:52:57.886Z,19.93
2024-03-08T01:55:25.296Z,17.63
2024-03-08T01:57:55.679Z,19.20
2024-03-08T02:00:23.189Z,20.07
2024-03-08T02:02:51.530Z,18.93
2024-03-08T02:05:18.987Z,19.60
2024-03-08T02:07:46.446Z,18.90
2024-03-08T02:10:19.729Z,19.57
2024-03-08T02:12:48.745Z,19.60
2024-03-08T02:15:16.326Z,19.70
2024-03-08T02:17:43.961Z,19.57
2024-03-08T02:20:13.363Z,18.43
2024-03-08T02:22:41.764Z,18.30
2024-03-08T02:25:09.560Z,19.57
2024-03-08T02:27:36.986Z,19.50
2024-03-08T02:30:04.658Z,19.60
2024-03-08T02:32:33.776Z,19.23
2024-03-08T02:35:01.572Z,19.40
2024-03-08T02:37:29.149Z,20.00
2024-03-08T02:39:56.852Z,19.60
2024-03-08T02:42:24.332Z,19.70
2024-03-08T02:44:52.839Z,18.70
2024-03-08T02:47:21.652Z,19.10
2024-03-08T02:49:51.207Z,19.33
2024-03-08T02:52:18.637Z,18.73
2024-03-08T02:54:47.875Z,19.80
2024-03-08T02:57:16.109Z,20.90
2024-03-08T02:59:43.897Z,20.07
2024-03-08T03:02:11.303Z,21.60
2024-03-08T03:04:40.264Z,21.23
2024-03-08T03:07:07.691Z,20.43
2024-03-08T03:09:35.179Z,22.00
2024-03-08T03:12:03.443Z,21.30
2024-03-08T03:14:30.872Z,21.83
2024-03-08T03:16:58.257Z,21.50
2024-03-08T03:19:25.721Z,21.30
2024-03-08T03:21:53.786Z,21.00
2024-03-08T03:24:22.192Z,20.17
2024-03-08T03:26:50.486Z,21.23
2024-03-08T03:29:18.056Z,20.93
2024-03-08T03:31:48.164Z,22.23
2024-03-08T03:34:16.412Z,21.53
2024-03-08T03:36:45.531Z,20.87
2024-03-08T03:39:14.673Z,22.23
2024-03-08T03:41:42.078Z,21.10
2024-03-08T03:44:10.761Z,20.73
2024-03-08T03:46:38.201Z,22.00
2024-03-08T03:49:05.693Z,22.90
2024-03-08T03:51:33.079Z,24.10
2024-03-08T03:54:00.560Z,21.67
2024-03-08T03:56:28.079Z,21.63
2024-03-08T03:58:55.584Z,22.63
2024-03-08T04:01:23.067Z,22.03
2024-03-08T04:03:50.474Z,23.67
2024-03-08T04:06:18.013Z,22.37
2024-03-08T04:08:45.548Z,22.43
2024-03-08T04:11:12.976Z,21.33
2024-03-08T04:13:40.357Z,21.90
2024-03-08T04:16:09.078Z,22.43
2024-03-08T04:18:36.794Z,22.03
2024-03-08T04:21:04.414Z,22.13
2024-03-08T04:23:32.121Z,22.50
2024-03-08T04:25:59.490Z,21.77
2024-03-08T04:28:27.332Z,24.90
2024-03-08T04:30:55.656Z,23.93
2024-03-08T04:33:24.393Z,23.27
2024-03-08T04:35:52.168Z,23.57
2024-03-08T04:38:20.116Z,24.17
2024-03-08T04:40:47.499Z,22.80
2024-03-08T04:43:15.945Z,23.37
2024-03-08T04:45:49.575Z,22.30
2024-03-08T04:48:17.118Z,22.93
2024-03-08T04:50:45.895Z,23.73
2024-03-08T04:53:13.598Z,24.20
2024-03-08T04:55:41.113Z,23.20
2024-03-08T04:58:08.586Z,24.90
2024-03-08T05:00:36.113Z,24.47
2024-03-08T05:03:03.681Z,23.60
2024-03-08T05:05:31.226Z,22.40
2024-03-08T05:07:58.649Z,22.80
2024-03-08T05:10:26.104Z,22.50
2024-03-08T05:12:55.565Z,22.80
2024-03-08T05:15:22.694Z,25.13
2024-03-08T05:17:50.736Z,23.50
2024-03-08T05:20:18.231Z,23.90
2024-03-08T05:22:46.098Z,24.23
2024-03-08T05:25:15.123Z,22.60
2024-03-08T05:27:42.540Z,25.03
2024-03-08T05:30:11.778Z,24.57
2024-03-08T05:32:39.462Z,23.37
2024-03-08T05:35:08.114Z,23.77
2024-03-08T05:37:35.567Z,23.40
2024-03-08T05:40:04.240Z,24.70
2024-03-08T05:42:31.677Z,24.00
2024-03-08T05:44:59.844Z,25.13
2024-03-08T05:47:30.637Z,25.27
2024-03-08T05:49:56.556Z,25.27
2024-03-08T05:52:23.983Z,23.77
2024-03-08T05:54:51.433Z,25.03
2024-03-08T05:57:19.202Z,24.17
2024-03-08T05:59:46.630Z,24.40
2024-03-08T06:02:15.673Z,26.00
2024-03-08T06:04:43.645Z,25.63
2024-03-08T06:07:12.728Z,24.13
2024-03-08T06:09:40.399Z,25.17
2024-03-08T06:12:08.174Z,25.10
2024-03-08T06:14:35.629Z,25.37
2024-03-08T06:17:03.107Z,23.87
2024-03-08T06:19:30.615Z,23.93
2024-03-08T06:21:58.047Z,24.27
2024-03-08T06:24:25.577Z,25.10
2024-03-08T06:26:54.594Z,25.27
2024-03-08T06:29:21.994Z,26.50
2024-03-08T06:31:49.448Z,24.07
2024-03-08T06:34:18.550Z,25.80
2024-03-08T06:36:46.087Z,23.87
2024-03-08T06:39:13.597Z,25.27
2024-03-08T06:41:41.376Z,25.30
2024-03-08T06:44:09.905Z,25.40
2024-03-08T06:46:39.091Z,24.07
2024-03-08T06:49:08.202Z,24.23
2024-03-08T06:51:35.637Z,24.97
2024-03-08T06:54:04.796Z,25.47
2024-03-08T06:56:32.237Z,22.57
2024-03-08T06:59:03.371Z,24.87
2024-03-08T07:01:35.920Z,25.63
2024-03-08T07:04:04.996Z,24.23
2024-03-08T07:06:34.400Z,22.80
2024-03-08T07:09:02.202Z,24.57
2024-03-08T07:11:29.683Z,22.73
2024-03-08T07:13:57.097Z,25.70
2024-03-08T07:16:24.963Z,22.57
2024-03-08T07:18:53.858Z,24.77
2024-03-08T07:21:23.406Z,23.10
2024-03-08T07:24:04.971Z,24.27
2024-03-08T07:26:32.510Z,23.30
2024-03-08T07:29:01.404Z,24.93
2024-03-08T07:31:30.499Z,22.27
2024-03-08T07:33:59.712Z,23.93
2024-03-08T07:36:27.170Z,23.53
2024-03-08T07:38:54.832Z,24.37
2024-03-08T07:41:23.412Z,22.27
2024-03-08T07:43:50.844Z,22.23
2024-03-08T07:46:19.466Z,22.77
2024-03-08T07:48:47.287Z,22.97
2024-03-08T07:51:17.146Z,22.20
2024-03-08T07:53:44.729Z,22.47
2024-03-08T07:56:13.850Z,22.33
2024-03-08T07:58:44.455Z,21.60
2024-03-08T08:01:19.484Z,21.87
2024-03-08T08:03:49.525Z,22.30
2024-03-08T08:06:17.404Z,22.80
2024-03-08T08:08:44.965Z,22.73
2024-03-08T08:11:18.796Z,22.77
2024-03-08T08:13:46.348Z,24.20
2024-03-08T08:16:14.632Z,21.63
2024-03-08T08:18:42.250Z,21.83
2024-03-08T08:21:09.636Z,21.83
2024-03-08T08:23:37.298Z,21.20
2024-03-08T08:26:05.625Z,20.83
2024-03-08T08:28:33.033Z,22.67
2024-03-08T08:31:00.537Z,21.50
2024-03-08T08:33:27.971Z,20.67
2024-03-08T08:35:55.724Z,20.77
2024-03-08T08:38:24.106Z,20.93
2024-03-08T08:40:51.589Z,20.37
2024-03-08T08:43:20.618Z,20.33
2024-03-08T08:45:49.686Z,22.17
2024-03-08T08:48:17.162Z,22.17
2024-03-08T08:50:45.945Z,22.27
2024-03-08T08:53:13.431Z,20.80
2024-03-08T08:55:41.769Z,21.00
2024-03-08T08:58:09.220Z,21.50
2024-03-08T09:00:36.690Z,20.63
2024-03-08T09:03:04.207Z,18.60
2024-03-08T09:05:33.155Z,21.90
2024-03-08T09:08:01.936Z,20.07
2024-03-08T09:10:31.433Z,20.80
2024-03-08T09:12:58.872Z,21.67
2024-03-08T09:15:28.035Z,20.93
2024-03-08T09:17:55.434Z,20.57
2024-03-08T09:20:22.913Z,19.23
2024-03-08T09:22:50.363Z,19.93
2024-03-08T09:25:17.855Z,20.30
2024-03-08T09:27:47.095Z,20.90
2024-03-08T09:30:16.026Z,19.67
2024-03-08T09:32:44.589Z,20.70
2024-03-08T09:35:13.968Z,19.60
2024-03-08T09:37:41.057Z,21.10
2024-03-08T09:40:10.178Z,21.30
2024-03-08T09:42:40.176Z,19.43
2024-03-08T09:45:09.170Z,21.50
2024-03-08T09:47:38.257Z,19.03
2024-03-08T09:50:05.910Z,19.80
2024-03-08T09:52:33.963Z,19.30
2024-03-08T09:55:02.613Z,21.10
2024-03-08T09:57:30.049Z,20.60
2024-03-08T09:59:57.559Z,19.50
2024-03-08T10:02:25.145Z,19.37
2024-03-08T10:04:54.454Z,20.40
2024-03-08T10:07:22.710Z,20.63
2024-03-08T10:09:51.851Z,17.80
2024-03-08T10:12:20.263Z,18.53
2024-03-08T10:14:47.915Z,18.53
2024-03-08T10:17:15.321Z,17.53
2024-03-08T10:19:45.849Z,20.40
2024-03-08T10:22:14.910Z,19.53
2024-03-08T10:24:42.344Z,18.10
2024-03-08T10:27:09.813Z,19.33
2024-03-08T10:29:39.404Z,19.73
2024-03-08T10:32:08.338Z,18.93
2024-03-08T10:34:35.793Z,20.50
2024-03-08T10:37:06.816Z,19.67
2024-03-08T10:39:38.085Z,17.83
2024-03-08T10:42:06.557Z,18.30
2024-03-08T10:44:44.468Z,18.10
2024-03-08T10:47:13.445Z,17.60
2024-03-08T10:49:43.280Z,18.87
2024-03-08T10:52:11.496Z,17.80
2024-03-08T10:54:45.128Z,17.77
2024-03-08T10:57:12.691Z,17.50
2024-03-08T10:59:40.557Z,18.63
2024-03-08T11:02:08.233Z,15.47
2024-03-08T11:04:37.362Z,16.83
2024-03-08T11:07:08.298Z,16.83
2024-03-08T11:09:39.477Z,16.90
2024-03-08T11:12:26.995Z,16.43
2024-03-08T11:14:55.386Z,15.87
2024-03-08T11:17:38.234Z,16.27
2024-03-08T11:20:07.258Z,16.30
2024-03-08T11:22:35.338Z,14.80
2024-03-08T11:25:07.996Z,16.03
2024-03-08T11:27:35.458Z,15.40
2024-03-08T11:30:17.167Z,15.67
2024-03-08T11:32:43.775Z,14.93
2024-03-08T11:35:13.587Z,14.57
2024-03-08T11:37:41.167Z,14.93
2024-03-08T11:40:10.169Z,15.20
2024-03-08T11:42:38.420Z,14.00
2024-03-08T11:45:08.999Z,15.33
2024-03-08T11:47:36.743Z,16.00
2024-03-08T11:50:04.442Z,15.10
2024-03-08T11:52:32.537Z,14.20
2024-03-08T11:54:59.935Z,14.67
2024-03-08T11:57:27.361Z,13.43
2024-03-08T11:59:57.918Z,14.17
2024-03-08T12:02:26.810Z,14.03
2024-03-08T12:05:00.717Z,14.13
2024-03-08T12:07:32.676Z,14.43
2024-03-08T12:10:19.695Z,15.77
2024-03-08T12:12:54.131Z,14.37
2024-03-08T12:15:22.918Z,14.47
2024-03-08T12:17:51.760Z,15.27
2024-03-08T12:20:22.059Z,14.80
2024-03-08T12:22:50.158Z,14.40
2024-03-08T12:25:17.846Z,14.30
2024-03-08T12:27:45.436Z,13.37
2024-03-08T12:30:23.552Z,13.67
2024-03-08T12:32:54.087Z,13.83
2024-03-08T12:35:23.353Z,13.50
2024-03-08T12:37:53.768Z,14.73
2024-03-08T12:40:22.808Z,12.90
2024-03-08T12:42:50.448Z,13.77
2024-03-08T12:45:17.882Z,14.60
2024-03-08T12:47:45.369Z,14.63
2024-03-08T12:50:12.726Z,14.87
2024-03-08T12:52:40.241Z,14.60
2024-03-08T12:55:07.869Z,14.37
2024-03-08T12:57:36.378Z,13.20
2024-03-08T13:00:04.589Z,13.77
2024-03-08T13:02:35.974Z,14.47
2024-03-08T13:05:05.099Z,13.40
2024-03-08T13:07:32.619Z,13.60
2024-03-08T13:10:00.730Z,13.60
2024-03-08T13:12:28.427Z,13.17
2024-03-08T13:14:59.017Z,14.23
2024-03-08T13:17:26.618Z,13.70
2024-03-08T13:19:55.882Z,13.50
2024-03-08T13:22:23.990Z,14.87
2024-03-08T13:24:54.303Z,32.20
2024-03-08T13:27:23.038Z,15.70
2024-03-08T13:29:50.538Z,21.93
2024-03-08T13:32:18.218Z,14.67
2024-03-08T13:34:48.594Z,15.43
2024-03-08T13:37:17.694Z,15.87
2024-03-08T13:39:45.249Z,15.77
2024-03-08T13:42:13.993Z,15.60
2024-03-08T13:44:42.980Z,16.23
2024-03-08T13:47:12.192Z,15.37
2024-03-08T13:49:39.757Z,15.63
2024-03-08T13:52:08.879Z,16.90
2024-03-08T13:54:36.667Z,14.43
2024-03-08T13:57:05.967Z,17.60
2024-03-08T13:59:34.035Z,17.33
2024-03-08T14:02:03.011Z,14.20
2024-03-08T14:04:30.602Z,16.07
2024-03-08T14:07:01.636Z,15.27
2024-03-08T14:09:30.125Z,14.53
2024-03-08T14:11:57.520Z,16.13
2024-03-08T14:14:25.001Z,23.10
2024-03-08T14:16:56.900Z,18.80
2024-03-08T14:19:24.681Z,15.97
2024-03-08T14:21:53.748Z,15.87
2024-03-08T14:24:22.670Z,16.57
2024-03-08T14:26:50.102Z,16.03
2024-03-08T14:29:19.015Z,16.17
2024-03-08T14:31:46.552Z,31.90
2024-03-08T14:34:15.571Z,15.70
2024-03-08T14:36:43.057Z,18.80
2024-03-08T14:39:10.517Z,14.93
2024-03-08T14:41:38.048Z,17.50
2024-03-08T14:44:05.614Z,15.93
2024-03-08T14:46:33.200Z,24.50
2024-03-08T14:49:00.649Z,17.70
2024-03-08T14:51:28.835Z,16.90
2024-03-08T14:53:56.344Z,17.80
2024-03-08T14:56:23.766Z,37.07
2024-03-08T14:58:52.362Z,17.60
2024-03-08T15:01:24.840Z,17.40
2024-03-08T15:03:52.320Z,18.70
2024-03-08T15:06:22.063Z,20.50
2024-03-08T15:08:49.609Z,15.63
2024-03-08T15:11:18.790Z,16.57
2024-03-08T15:13:47.302Z,16.93
2024-03-08T15:16:16.489Z,20.30
2024-03-08T15:18:47.768Z,19.03
2024-03-08T15:21:17.471Z,16.97
2024-03-08T15:23:46.957Z,16.20
2024-03-08T15:26:14.423Z,18.20
2024-03-08T15:28:41.895Z,17.17
2024-03-08T15:31:09.336Z,16.67
2024-03-08T15:33:39.185Z,16.00
2024-03-08T15:36:08.457Z,16.57
2024-03-08T15:38:35.884Z,13.70
2024-03-08T15:41:04.472Z,16.27
2024-03-08T15:43:33.603Z,14.90
2024-03-08T15:46:02.754Z,16.57
2024-03-08T15:48:31.937Z,15.33
2024-03-08T15:50:59.494Z,16.10
2024-03-08T15:53:31.355Z,15.73
2024-03-08T15:55:59.839Z,15.90
2024-03-08T15:58:27.428Z,16.13
2024-03-08T16:00:56.633Z,16.73
2024-03-08T16:03:24.266Z,16.13
2024-03-08T16:05:52.582Z,16.00
2024-03-08T16:08:21.291Z,16.87
2024-03-08T16:10:53.992Z,14.90
2024-03-08T16:13:23.274Z,15.43
2024-03-08T16:15:52.119Z,19.03
2024-03-08T16:18:24.183Z,18.90
2024-03-08T16:20:52.132Z,17.40
2024-03-08T16:23:19.850Z,16.57
2024-03-08T16:25:48.020Z,15.70
2024-03-08T16:28:15.677Z,16.00
2024-03-08T16:30:45.333Z,46.13
2024-03-08T16:33:14.494Z,14.27
2024-03-08T16:35:43.793Z,15.10
2024-03-08T16:38:13.335Z,18.33
2024-03-08T16:40:41.247Z,16.73
2024-03-08T16:43:15.818Z,17.80
2024-03-08T16:45:43.510Z,15.53
2024-03-08T16:48:11.845Z,15.80
2024-03-08T16:50:41.316Z,23.80
2024-03-08T16:53:09.163Z,20.73
2024-03-08T16:55:36.657Z,16.60
2024-03-08T16:58:06.063Z,25.17
2024-03-08T17:00:33.926Z,14.03
2024-03-08T17:03:03.463Z,18.20
2024-03-08T17:05:31.513Z,23.50
2024-03-08T17:08:04.550Z,18.37
2024-03-08T17:10:32.652Z,21.17
2024-03-08T17:13:01.152Z,30.70
2024-03-08T17:15:30.138Z,17.10
2024-03-08T17:18:02.711Z,13.83
2024-03-08T17:20:31.112Z,14.83
2024-03-08T17:23:02.003Z,17.97
2024-03-08T17:25:28.144Z,17.00
2024-03-08T17:28:00.560Z,18.90
2024-03-08T17:30:29.233Z,17.57
2024-03-08T17:33:00.317Z,19.10
2024-03-08T17:35:27.782Z,16.90
2024-03-08T17:37:59.534Z,18.50
2024-03-08T17:40:28.354Z,18.63
2024-03-08T17:43:02.344Z,16.50
2024-03-08T17:45:30.332Z,21.13
2024-03-08T17:47:57.832Z,18.90
2024-03-08T17:50:25.362Z,15.97
2024-03-08T17:52:54.404Z,15.07
2024-03-08T17:55:23.533Z,14.00
2024-03-08T17:57:52.227Z,15.63
2024-03-08T18:00:25.564Z,13.83
2024-03-08T18:02:53.458Z,15.60
2024-03-08T18:05:22.940Z,15.60
2024-03-08T18:07:50.390Z,17.00
2024-03-08T18:10:21.910Z,20.93
2024-03-08T18:12:51.587Z,17.60
2024-03-08T18:15:24.675Z,15.37
2024-03-08T18:17:52.848Z,15.10
2024-03-08T18:20:29.379Z,15.97
2024-03-08T18:23:00.822Z,16.30
2024-03-08T18:25:29.622Z,15.87
2024-03-08T18:28:02.513Z,15.40
2024-03-08T18:30:29.972Z,16.17
2024-03-08T18:32:57.433Z,14.00
2024-03-08T18:35:24.914Z,14.67
2024-03-08T18:37:52.634Z,14.23
2024-03-08T18:40:23.921Z,14.70
2024-03-08T18:42:52.885Z,14.57
2024-03-08T18:45:22.219Z,17.97
2024-03-08T18:47:50.535Z,15.77
2024-03-08T18:50:19.244Z,17.93
2024-03-08T18:52:48.381Z,15.93
2024-03-08T18:55:20.531Z,14.23
2024-03-08T18:57:48.101Z,12.57
2024-03-08T19:00:22.358Z,12.80
2024-03-08T19:02:51.005Z,14.07
2024-03-08T19:05:18.914Z,14.20
2024-03-08T19:07:47.381Z,15.87
2024-03-08T19:10:16.975Z,13.93
2024-03-08T19:12:45.408Z,16.53
2024-03-08T19:15:12.842Z,15.10
2024-03-08T19:17:40.289Z,13.83
2024-03-08T19:20:12.627Z,15.70
2024-03-08T19:22:40.759Z,12.53
2024-03-08T19:25:10.025Z,17.50
2024-03-08T19:27:37.917Z,16.60
2024-03-08T19:30:06.435Z,14.10
2024-03-08T19:32:35.106Z,15.13
2024-03-08T19:35:04.894Z,15.23
2024-03-08T19:37:32.411Z,16.60
2024-03-08T19:40:00.974Z,17.90
2024-03-08T19:42:28.367Z,16.97
2024-03-08T19:44:55.812Z,19.00
2024-03-08T19:47:26.881Z,20.93
2024-03-08T19:49:54.436Z,15.37
2024-03-08T19:52:22.681Z,13.83
2024-03-08T19:54:50.340Z,17.40
2024-03-08T19:57:17.782Z,20.70
2024-03-08T19:59:46.913Z,22.03
2024-03-08T20:02:14.517Z,19.37
2024-03-08T20:04:41.984Z,12.77
2024-03-08T20:07:09.365Z,16.20
2024-03-08T20:09:37.377Z,15.30
2024-03-08T20:12:06.542Z,15.40
2024-03-08T20:14:36.073Z,16.50
2024-03-08T20:17:05.070Z,20.70
2024-03-08T20:19:39.690Z,17.10
2024-03-08T20:22:07.223Z,13.37
2024-03-08T20:24:34.627Z,15.63
2024-03-08T20:27:03.805Z,12.00
2024-03-08T20:29:32.283Z,13.03
2024-03-08T20:31:59.806Z,11.77
2024-03-08T20:34:27.365Z,13.23
2024-03-08T20:36:54.877Z,11.40
2024-03-08T20:39:22.324Z,10.80
2024-03-08T20:41:50.288Z,13.70
2024-03-08T20:44:17.676Z,11.67
2024-03-08T20:46:46.192Z,11.50
2024-03-08T20:49:14.453Z,12.60
2024-03-08T20:51:44.989Z,12.37
2024-03-08T20:54:12.488Z,12.30
2024-03-08T20:56:42.287Z,12.23
2024-03-08T20:59:10.707Z,12.50
2024-03-08T21:01:38.342Z,12.43
2024-03-08T21:04:06.623Z,11.80
2024-03-08T21:06:37.058Z,12.73
2024-03-08T21:09:06.110Z,12.70
2024-03-08T21:11:35.477Z,12.27
2024-03-08T21:14:03.001Z,11.37
2024-03-08T21:16:30.429Z,11.83
2024-03-08T21:18:57.893Z,12.53
2024-03-08T21:21:26.679Z,11.50
2024-03-08T21:23:55.982Z,12.60
2024-03-08T21:26:23.594Z,12.23
2024-03-08T21:28:51.143Z,12.30
2024-03-08T21:31:20.377Z,12.30
2024-03-08T21:33:49.168Z,13.30
2024-03-08T21:36:17.904Z,12.50
2024-03-08T21:38:45.695Z,14.23
2024-03-08T21:41:13.910Z,11.43
2024-03-08T21:43:41.472Z,12.57
2024-03-08T21:46:10.175Z,12.50
2024-03-08T21:48:37.702Z,12.60
2024-03-08T21:51:06.505Z,12.50
2024-03-08T21:53:36.158Z,12.60
2024-03-08T21:56:05.479Z,12.90
2024-03-08T21:58:35.208Z,12.07
2024-03-08T22:01:03.153Z,12.40
2024-03-08T22:03:32.548Z,12.93
2024-03-08T22:06:00.255Z,12.50
2024-03-08T22:08:27.728Z,12.70
2024-03-08T22:10:56.763Z,14.10
2024-03-08T22:13:24.351Z,14.70
2024-03-08T22:15:53.237Z,13.33
2024-03-08T22:18:21.142Z,14.10
2024-03-08T22:20:50.552Z,13.17
2024-03-08T22:23:21.612Z,13.50
2024-03-08T22:25:51.264Z,13.13
2024-03-08T22:28:20.334Z,12.90
2024-03-08T22:30:47.788Z,12.70
2024-03-08T22:33:15.271Z,13.10
2024-03-08T22:35:43.370Z,11.93
2024-03-08T22:38:12.692Z,13.50
2024-03-08T22:40:40.249Z,12.90
2024-03-08T22:43:07.782Z,12.30
2024-03-08T22:45:35.413Z,14.07
2024-03-08T22:48:04.506Z,12.40
2024-03-08T22:50:31.998Z,13.40
2024-03-08T22:53:01.009Z,17.37
2024-03-08T22:55:28.600Z,15.07
2024-03-08T22:57:55.978Z,14.87
2024-03-08T23:00:28.642Z,13.03
2024-03-08T23:02:57.676Z,13.33
2024-03-08T23:05:27.781Z,13.77
2024-03-08T23:07:56.030Z,12.63
2024-03-08T23:10:25.411Z,13.60
2024-03-08T23:12:54.044Z,13.57
2024-03-08T23:15:23.400Z,13.40
2024-03-08T23:17:55.469Z,13.93
2024-03-08T23:20:25.079Z,12.20
2024-03-08T23:22:52.838Z,14.13
2024-03-08T23:25:20.968Z,13.90
2024-03-08T23:27:51.588Z,13.77
2024-03-08T23:30:20.785Z,13.60
2024-03-08T23:32:48.382Z,13.57
2024-03-08T23:35:16.022Z,14.53
2024-03-08T23:37:49.133Z,14.00
2024-03-08T23:43:16.538Z,14.30
2024-03-08T23:45:44.498Z,14.30
2024-03-08T23:48:12.323Z,14.10
2024-03-08T23:50:39.822Z,12.87
2024-03-08T23:53:08.558Z,14.13
2024-03-08T23:55:36.906Z,13.40
2024-03-08T23:58:06.072Z,13.13
